createdAt,value
2017-12-27T00:00:45.977Z,-3.40
2017-12-27T00:03:19.094Z,-3.43
2017-12-27T00:05:52.620Z,-3.40
2017-12-27T00:08:25.810Z,-3.52
2017-12-27T00:10:58.935Z,-3.62
2017-12-27T00:16:36.382Z,-3.50
2017-12-27T00:19:10.484Z,-3.50
2017-12-27T00:21:44.111Z,-3.55
2017-12-27T00:24:17.535Z,-3.63
2017-12-27T00:26:50.650Z,-3.70
2017-12-27T00:29:23.796Z,-3.80
2017-12-27T00:31:50.845Z,-3.89
2017-12-27T00:34:18.436Z,-3.90
2017-12-27T00:36:46.015Z,-3.91
2017-12-27T00:39:13.899Z,-3.99
2017-12-27T00:41:41.464Z,-4.07
2017-12-27T00:44:09.179Z,-4.06
2017-12-27T00:46:36.836Z,-4.08
2017-12-27T00:49:04.581Z,-4.13
2017-12-27T00:51:32.191Z,-4.15
2017-12-27T00:54:00.106Z,-4.09
2017-12-27T00:56:27.726Z,-3.93
2017-12-27T00:58:55.289Z,-3.89
2017-12-27T01:01:22.929Z,-3.94
2017-12-27T01:03:50.495Z,-3.98
2017-12-27T01:06:18.044Z,-4.07
2017-12-27T01:08:45.677Z,-4.14
2017-12-27T01:11:14.152Z,-4.18
2017-12-27T01:13:41.748Z,-4.12
2017-12-27T01:16:09.370Z,-4.10
2017-12-27T01:18:37.168Z,-4.15
2017-12-27T01:21:04.989Z,-4.22
2017-12-27T01:23:32.589Z,-4.25
2017-12-27T01:26:00.178Z,-4.17
2017-12-27T01:28:27.761Z,-4.10
2017-12-27T01:30:55.344Z,-4.17
2017-12-27T01:33:22.945Z,-4.21
2017-12-27T01:35:50.538Z,-4.25
2017-12-27T01:38:18.182Z,-4.22
2017-12-27T01:40:45.740Z,-4.30
2017-12-27T01:43:13.352Z,-4.20
2017-12-27T01:45:41.016Z,-4.10
2017-12-27T01:48:08.599Z,-4.20
2017-12-27T01:50:36.218Z,-4.36
2017-12-27T01:53:04.265Z,-4.45
2017-12-27T01:55:31.860Z,-4.46
2017-12-27T01:57:59.465Z,-4.43
2017-12-27T02:00:27.108Z,-4.47
2017-12-27T02:02:54.720Z,-4.51
2017-12-27T02:05:22.336Z,-4.44
2017-12-27T02:07:50.223Z,-4.46
2017-12-27T02:10:17.822Z,-4.51
2017-12-27T02:12:45.408Z,-4.46
2017-12-27T02:15:13.483Z,-4.43
2017-12-27T02:17:41.046Z,-4.38
2017-12-27T02:20:08.638Z,-4.47
2017-12-27T02:22:36.230Z,-4.46
2017-12-27T02:25:04.078Z,-4.45
2017-12-27T02:27:31.664Z,-4.39
2017-12-27T02:29:59.303Z,-4.29
2017-12-27T02:32:26.969Z,-4.35
2017-12-27T02:34:54.529Z,-4.39
2017-12-27T02:37:22.194Z,-4.42
2017-12-27T02:43:00.776Z,-4.39
2017-12-27T02:45:28.347Z,-4.37
2017-12-27T02:47:55.953Z,-4.39
2017-12-27T02:50:23.600Z,-4.45
2017-12-27T02:52:51.168Z,-4.38
2017-12-27T02:55:19.473Z,-4.42
2017-12-27T02:57:47.501Z,-4.45
2017-12-27T03:00:15.551Z,-4.48
2017-12-27T03:02:43.108Z,-4.54
2017-12-27T03:05:10.700Z,-4.66
2017-12-27T03:07:38.310Z,-4.62
2017-12-27T03:10:07.743Z,-4.63
2017-12-27T03:12:35.356Z,-4.74
2017-12-27T03:15:03.640Z,-4.78
2017-12-27T03:17:33.164Z,-4.80
2017-12-27T03:20:00.832Z,-4.75
2017-12-27T03:22:28.403Z,-4.76
2017-12-27T03:24:55.988Z,-4.70
2017-12-27T03:27:23.948Z,-4.72
2017-12-27T03:29:51.786Z,-4.67
2017-12-27T03:32:19.490Z,-4.72
2017-12-27T03:34:47.089Z,-4.70
2017-12-27T03:37:15.561Z,-4.68
2017-12-27T03:39:43.353Z,-4.75
2017-12-27T03:42:12.265Z,-4.68
2017-12-27T03:44:39.909Z,-4.68
2017-12-27T03:47:07.538Z,-4.71
2017-12-27T03:49:35.135Z,-4.83
2017-12-27T03:52:02.732Z,-4.87
2017-12-27T03:54:30.441Z,-4.83
2017-12-27T03:56:59.874Z,-4.90
2017-12-27T03:59:28.150Z,-4.85
2017-12-27T04:01:55.706Z,-4.90
2017-12-27T04:04:27.192Z,-4.91
2017-12-27T04:06:54.766Z,-4.98
2017-12-27T04:09:22.593Z,-4.95
2017-12-27T04:11:50.167Z,-4.89
2017-12-27T04:14:17.821Z,-4.88
2017-12-27T04:16:45.424Z,-4.95
2017-12-27T04:19:13.163Z,-4.99
2017-12-27T04:21:41.111Z,-5.06
2017-12-27T04:24:08.716Z,-5.03
2017-12-27T04:26:36.288Z,-4.78
2017-12-27T04:29:03.914Z,-4.77
2017-12-27T04:31:32.213Z,-4.70
2017-12-27T04:33:59.788Z,-4.68
2017-12-27T04:36:27.389Z,-4.78
2017-12-27T04:38:55.261Z,-4.74
2017-12-27T04:41:22.850Z,-4.76
2017-12-27T04:43:50.443Z,-4.87
2017-12-27T04:46:18.054Z,-4.95
2017-12-27T04:48:45.991Z,-4.99
2017-12-27T04:51:13.936Z,-5.00
2017-12-27T04:53:41.510Z,-5.09
2017-12-27T04:56:09.160Z,-5.06
2017-12-27T04:58:36.751Z,-5.01
2017-12-27T05:01:04.313Z,-5.05
2017-12-27T05:03:32.065Z,-5.07
2017-12-27T05:05:59.659Z,-5.10
2017-12-27T05:08:27.264Z,-4.89
2017-12-27T05:10:54.911Z,-4.83
2017-12-27T05:13:22.486Z,-4.73
2017-12-27T05:15:50.069Z,-4.59
2017-12-27T05:18:18.030Z,-4.56
2017-12-27T05:20:45.609Z,-4.67
2017-12-27T05:23:13.790Z,-4.80
2017-12-27T05:25:41.380Z,-4.81
2017-12-27T05:28:08.951Z,-4.74
2017-12-27T05:30:36.513Z,-4.86
2017-12-27T05:33:04.116Z,-4.92
2017-12-27T05:35:31.892Z,-5.04
2017-12-27T05:37:59.460Z,-5.11
2017-12-27T05:40:27.114Z,-5.10
2017-12-27T05:42:54.683Z,-5.13
2017-12-27T05:45:24.638Z,-5.19
2017-12-27T05:47:52.382Z,-5.22
2017-12-27T05:50:24.072Z,-5.09
2017-12-27T05:52:51.678Z,-4.94
2017-12-27T05:55:19.300Z,-4.94
2017-12-27T05:57:51.678Z,-4.93
2017-12-27T06:00:19.272Z,-4.90
2017-12-27T06:02:46.887Z,-4.89
2017-12-27T06:05:14.584Z,-4.83
2017-12-27T06:07:42.241Z,-4.88
2017-12-27T06:10:09.818Z,-4.93
2017-12-27T06:12:37.616Z,-4.97
2017-12-27T06:15:05.222Z,-4.87
2017-12-27T06:17:32.866Z,-4.92
2017-12-27T06:20:00.457Z,-5.02
2017-12-27T06:22:28.084Z,-5.08
2017-12-27T06:24:55.671Z,-5.13
2017-12-27T06:27:24.189Z,-5.10
2017-12-27T06:29:51.773Z,-4.97
2017-12-27T06:32:19.344Z,-4.86
2017-12-27T06:34:46.900Z,-4.89
2017-12-27T06:37:14.462Z,-4.85
2017-12-27T06:39:42.064Z,-4.89
2017-12-27T06:42:09.801Z,-4.88
2017-12-27T06:44:37.378Z,-4.94
2017-12-27T06:47:05.166Z,-4.98
2017-12-27T06:49:32.754Z,-5.03
2017-12-27T06:52:00.356Z,-5.07
2017-12-27T06:54:27.937Z,-5.10
2017-12-27T06:56:55.513Z,-5.10
2017-12-27T06:59:23.142Z,-5.05
2017-12-27T07:01:50.700Z,-5.07
2017-12-27T07:04:18.281Z,-5.06
2017-12-27T07:06:45.868Z,-5.08
2017-12-27T07:09:13.894Z,-5.06
2017-12-27T07:11:41.711Z,-5.11
2017-12-27T07:14:09.350Z,-5.14
2017-12-27T07:16:36.968Z,-5.12
2017-12-27T07:19:04.679Z,-5.01
2017-12-27T07:21:32.348Z,-4.94
2017-12-27T07:23:59.914Z,-4.97
2017-12-27T07:26:27.468Z,-4.93
2017-12-27T07:28:55.142Z,-4.92
2017-12-27T07:31:22.710Z,-4.91
2017-12-27T07:33:50.359Z,-4.86
2017-12-27T07:36:17.997Z,-4.78
2017-12-27T07:38:45.636Z,-4.73
2017-12-27T07:41:13.728Z,-4.69
2017-12-27T07:43:41.304Z,-4.65
2017-12-27T07:46:12.450Z,-4.63
2017-12-27T07:48:41.256Z,-4.52
2017-12-27T07:51:11.081Z,-4.40
2017-12-27T07:53:38.841Z,-4.37
2017-12-27T07:56:06.444Z,-4.35
2017-12-27T07:58:35.225Z,-4.11
2017-12-27T08:01:02.850Z,-4.12
2017-12-27T08:03:30.540Z,-4.10
2017-12-27T08:05:58.138Z,-4.07
2017-12-27T08:08:25.730Z,-3.99
2017-12-27T08:10:53.353Z,-3.83
2017-12-27T08:13:20.960Z,-3.74
2017-12-27T08:15:48.526Z,-3.72
2017-12-27T08:18:16.144Z,-3.73
2017-12-27T08:20:43.697Z,-3.76
2017-12-27T08:23:11.933Z,-3.72
2017-12-27T08:25:39.933Z,-3.68
2017-12-27T08:28:07.520Z,-3.66
2017-12-27T08:30:35.092Z,-3.52
2017-12-27T08:33:02.681Z,-3.32
2017-12-27T08:35:32.038Z,-3.27
2017-12-27T08:37:59.797Z,-3.25
2017-12-27T08:40:28.145Z,-3.24
2017-12-27T08:42:56.451Z,-3.10
2017-12-27T08:45:25.478Z,-2.92
2017-12-27T08:47:53.098Z,-2.71
2017-12-27T08:50:20.749Z,-2.33
2017-12-27T08:52:48.336Z,-2.16
2017-12-27T08:55:15.951Z,-2.19
2017-12-27T08:57:43.515Z,-2.25
2017-12-27T09:00:11.078Z,-2.12
2017-12-27T09:02:38.674Z,-2.01
2017-12-27T09:05:06.519Z,-1.94
2017-12-27T09:07:34.140Z,-1.99
2017-12-27T09:10:01.703Z,-1.83
2017-12-27T09:12:29.276Z,-1.78
2017-12-27T09:14:56.836Z,-1.71
2017-12-27T09:17:24.667Z,-1.83
2017-12-27T09:19:52.220Z,-1.53
2017-12-27T09:22:19.829Z,-1.55
2017-12-27T09:24:47.395Z,-1.50
2017-12-27T09:27:14.986Z,-1.40
2017-12-27T09:29:42.580Z,-1.20
2017-12-27T09:32:10.153Z,-0.78
2017-12-27T09:34:37.728Z,-0.60
2017-12-27T09:37:05.489Z,-0.64
2017-12-27T09:39:34.061Z,-0.45
2017-12-27T09:42:01.641Z,-0.61
2017-12-27T09:44:29.229Z,-0.43
2017-12-27T09:46:56.805Z,-0.25
2017-12-27T09:49:24.754Z,-0.19
2017-12-27T09:51:52.345Z,-0.16
2017-12-27T09:54:19.923Z,-0.19
2017-12-27T09:56:47.480Z,-0.28
2017-12-27T09:59:15.067Z,0.00
2017-12-27T10:01:44.277Z,0.11
2017-12-27T10:04:11.912Z,0.16
2017-12-27T10:06:39.491Z,0.24
2017-12-27T10:09:07.221Z,0.14
2017-12-27T10:11:34.802Z,0.25
2017-12-27T10:14:02.371Z,0.15
2017-12-27T10:16:30.115Z,0.34
2017-12-27T10:18:57.685Z,0.65
2017-12-27T10:21:25.291Z,0.60
2017-12-27T10:23:52.960Z,0.67
2017-12-27T10:26:20.578Z,0.83
2017-12-27T10:28:48.121Z,0.66
2017-12-27T10:31:15.673Z,0.63
2017-12-27T10:33:43.239Z,0.79
2017-12-27T10:36:11.253Z,1.00
2017-12-27T10:38:38.901Z,1.10
2017-12-27T10:41:06.635Z,1.23
2017-12-27T10:43:34.179Z,1.31
2017-12-27T10:46:01.741Z,1.38
2017-12-27T10:48:29.617Z,1.41
2017-12-27T10:50:57.194Z,1.33
2017-12-27T10:53:28.547Z,1.30
2017-12-27T10:55:56.140Z,1.19
2017-12-27T10:58:24.778Z,1.46
2017-12-27T11:00:52.401Z,1.66
2017-12-27T11:03:20.973Z,1.84
2017-12-27T11:05:48.590Z,1.77
2017-12-27T11:08:16.138Z,1.72
2017-12-27T11:10:43.706Z,1.81
2017-12-27T11:13:12.718Z,1.98
2017-12-27T11:15:40.288Z,1.93
2017-12-27T11:18:07.896Z,2.10
2017-12-27T11:20:35.463Z,2.01
2017-12-27T11:23:03.072Z,2.06
2017-12-27T11:25:30.677Z,2.13
2017-12-27T11:27:58.224Z,1.86
2017-12-27T11:30:25.795Z,2.12
2017-12-27T11:32:53.367Z,2.36
2017-12-27T11:35:20.933Z,2.42
2017-12-27T11:37:48.482Z,2.36
2017-12-27T11:40:16.058Z,2.15
2017-12-27T11:42:45.543Z,2.33
2017-12-27T11:45:13.564Z,2.54
2017-12-27T11:47:41.318Z,2.63
2017-12-27T11:50:08.879Z,2.35
2017-12-27T11:52:38.279Z,2.20
2017-12-27T11:55:06.194Z,2.32
2017-12-27T11:57:33.769Z,2.52
2017-12-27T12:00:01.309Z,2.66
2017-12-27T12:02:28.908Z,2.80
2017-12-27T12:04:56.459Z,2.60
2017-12-27T12:07:24.807Z,2.42
2017-12-27T12:09:52.581Z,2.52
2017-12-27T12:12:20.207Z,2.61
2017-12-27T12:14:47.757Z,2.89
2017-12-27T12:17:15.318Z,2.56
2017-12-27T12:19:42.861Z,2.25
2017-12-27T12:22:10.524Z,2.07
2017-12-27T12:24:38.081Z,2.41
2017-12-27T12:27:05.948Z,2.57
2017-12-27T12:29:34.402Z,2.75
2017-12-27T12:32:01.942Z,2.99
2017-12-27T12:34:29.514Z,3.08
2017-12-27T12:36:57.085Z,3.06
2017-12-27T12:39:24.928Z,2.94
2017-12-27T12:41:52.484Z,2.76
2017-12-27T12:44:20.031Z,2.42
2017-12-27T12:46:47.581Z,2.25
2017-12-27T12:49:15.181Z,2.09
2017-12-27T12:51:42.733Z,2.25
2017-12-27T12:54:10.396Z,2.50
2017-12-27T12:56:38.021Z,2.57
2017-12-27T12:59:06.123Z,2.43
2017-12-27T13:01:33.710Z,2.52
2017-12-27T13:04:01.292Z,2.36
2017-12-27T13:06:28.851Z,2.33
2017-12-27T13:08:56.443Z,2.28
2017-12-27T13:11:25.262Z,2.33
2017-12-27T13:13:52.860Z,2.52
2017-12-27T13:16:20.407Z,2.73
2017-12-27T13:18:48.005Z,2.94
2017-12-27T13:21:15.576Z,3.15
2017-12-27T13:23:43.125Z,2.94
2017-12-27T13:26:10.810Z,2.98
2017-12-27T13:28:38.483Z,2.96
2017-12-27T13:31:06.485Z,2.67
2017-12-27T13:33:34.146Z,2.45
2017-12-27T13:36:01.823Z,2.44
2017-12-27T13:38:29.467Z,2.70
2017-12-27T13:40:57.063Z,2.78
2017-12-27T13:43:24.663Z,2.93
2017-12-27T13:45:53.143Z,3.10
2017-12-27T13:48:20.824Z,3.44
2017-12-27T13:50:48.418Z,3.75
2017-12-27T13:53:15.984Z,3.91
2017-12-27T13:55:43.576Z,3.89
2017-12-27T13:58:11.262Z,4.25
2017-12-27T14:00:38.838Z,4.27
2017-12-27T14:03:06.484Z,4.31
2017-12-27T14:05:34.619Z,4.08
2017-12-27T14:08:02.194Z,4.05
2017-12-27T14:10:30.172Z,3.82
2017-12-27T14:12:57.814Z,3.59
2017-12-27T14:15:25.606Z,3.15
2017-12-27T14:17:53.170Z,2.68
2017-12-27T14:20:20.773Z,2.54
2017-12-27T14:22:48.407Z,2.37
2017-12-27T14:25:15.983Z,2.24
2017-12-27T14:27:43.648Z,1.96
2017-12-27T14:30:11.317Z,1.91
2017-12-27T14:32:38.885Z,1.86
2017-12-27T14:35:07.282Z,1.85
2017-12-27T14:37:34.890Z,1.70
2017-12-27T14:40:02.614Z,1.58
2017-12-27T14:42:30.215Z,1.44
2017-12-27T14:44:57.810Z,1.44
2017-12-27T14:47:26.752Z,1.40
2017-12-27T14:49:54.354Z,1.29
2017-12-27T14:52:22.897Z,1.09
2017-12-27T14:54:50.467Z,1.00
2017-12-27T14:57:18.086Z,0.96
2017-12-27T14:59:45.663Z,0.97
2017-12-27T15:02:13.354Z,1.14
2017-12-27T15:04:40.929Z,1.19
2017-12-27T15:07:12.272Z,1.07
2017-12-27T15:09:40.126Z,0.99
2017-12-27T15:12:07.684Z,0.86
2017-12-27T15:14:35.562Z,0.72
2017-12-27T15:17:03.142Z,0.66
2017-12-27T15:19:31.126Z,0.72
2017-12-27T15:22:02.154Z,0.73
2017-12-27T15:24:29.790Z,0.72
2017-12-27T15:26:57.386Z,0.70
2017-12-27T15:29:26.391Z,0.62
2017-12-27T15:31:53.979Z,0.59
2017-12-27T15:34:21.627Z,0.54
2017-12-27T15:36:49.675Z,0.56
2017-12-27T15:39:19.110Z,0.61
2017-12-27T15:41:46.700Z,0.57
2017-12-27T15:44:15.538Z,0.61
2017-12-27T15:46:43.462Z,0.54
2017-12-27T15:49:12.232Z,0.51
2017-12-27T15:51:39.919Z,0.45
2017-12-27T15:54:07.617Z,0.41
2017-12-27T15:56:35.191Z,0.38
2017-12-27T15:59:02.781Z,0.49
2017-12-27T16:01:30.423Z,0.49
2017-12-27T16:03:58.018Z,0.51
2017-12-27T16:06:25.555Z,0.56
2017-12-27T16:08:53.213Z,0.58
2017-12-27T16:11:20.817Z,0.83
2017-12-27T16:13:48.403Z,0.85
2017-12-27T16:16:16.103Z,0.76
2017-12-27T16:18:43.685Z,0.69
2017-12-27T16:21:12.978Z,0.56
2017-12-27T16:23:40.623Z,0.51
2017-12-27T16:26:08.215Z,0.63
2017-12-27T16:28:35.794Z,0.69
2017-12-27T16:31:03.389Z,0.81
2017-12-27T16:33:30.960Z,0.71
2017-12-27T16:35:58.505Z,0.57
2017-12-27T16:38:26.108Z,0.63
2017-12-27T16:40:53.720Z,0.76
2017-12-27T16:43:21.388Z,0.71
2017-12-27T16:45:49.052Z,0.65
2017-12-27T16:48:16.703Z,0.60
2017-12-27T16:50:44.305Z,0.75
2017-12-27T16:53:13.084Z,0.81
2017-12-27T16:55:40.742Z,0.80
2017-12-27T16:58:08.771Z,0.87
2017-12-27T17:00:36.346Z,1.00
2017-12-27T17:03:03.952Z,1.25
2017-12-27T17:05:32.589Z,1.11
2017-12-27T17:08:00.150Z,1.00
2017-12-27T17:10:28.062Z,1.03
2017-12-27T17:15:47.570Z,1.02
2017-12-27T17:18:15.543Z,1.06
2017-12-27T17:20:43.137Z,1.11
2017-12-27T17:23:11.490Z,1.17
2017-12-27T17:25:39.100Z,1.22
2017-12-27T17:28:06.695Z,1.24
2017-12-27T17:30:34.317Z,1.29
2017-12-27T17:33:01.927Z,1.41
2017-12-27T17:35:29.544Z,1.57
2017-12-27T17:37:57.146Z,1.72
2017-12-27T17:40:24.797Z,1.71
2017-12-27T17:42:52.452Z,1.56
2017-12-27T17:45:20.026Z,1.39
2017-12-27T17:47:47.672Z,1.48
2017-12-27T17:50:15.409Z,1.43
2017-12-27T17:52:43.004Z,1.35
2017-12-27T17:55:11.631Z,1.35
2017-12-27T17:57:39.273Z,1.38
2017-12-27T18:00:07.119Z,1.34
2017-12-27T18:02:34.680Z,1.37
2017-12-27T18:05:02.275Z,1.17
2017-12-27T18:07:29.908Z,0.99
2017-12-27T18:09:57.527Z,0.94
2017-12-27T18:12:25.105Z,0.98
2017-12-27T18:14:52.700Z,1.01
2017-12-27T18:17:20.308Z,1.05
2017-12-27T18:19:47.870Z,1.24
2017-12-27T18:22:15.636Z,1.35
2017-12-27T18:24:44.073Z,1.23
2017-12-27T18:27:13.213Z,1.10
2017-12-27T18:29:40.776Z,1.14
2017-12-27T18:32:08.515Z,1.21
2017-12-27T18:34:36.087Z,1.29
2017-12-27T18:37:04.007Z,1.30
2017-12-27T18:39:31.686Z,1.35
2017-12-27T18:41:59.269Z,1.48
2017-12-27T18:44:26.883Z,1.60
2017-12-27T18:46:54.476Z,1.71
2017-12-27T18:49:22.054Z,1.79
2017-12-27T18:51:49.620Z,1.90
2017-12-27T18:54:17.357Z,1.98
2017-12-27T18:56:44.937Z,2.01
2017-12-27T18:59:12.773Z,1.92
2017-12-27T19:01:42.263Z,1.84
2017-12-27T19:04:10.640Z,1.85
2017-12-27T19:06:38.198Z,1.86
2017-12-27T19:09:06.173Z,1.74
2017-12-27T19:11:34.136Z,1.93
2017-12-27T19:14:01.688Z,2.00
2017-12-27T19:16:29.376Z,2.21
2017-12-27T19:18:56.946Z,2.15
2017-12-27T19:21:24.509Z,2.11
2017-12-27T19:23:52.111Z,2.11
2017-12-27T19:26:19.660Z,2.11
2017-12-27T19:28:47.279Z,2.17
2017-12-27T19:31:15.567Z,2.19
2017-12-27T19:33:43.666Z,2.29
2017-12-27T19:36:11.224Z,2.22
2017-12-27T19:38:38.835Z,2.06
2017-12-27T19:41:06.529Z,1.94
2017-12-27T19:43:34.081Z,1.96
2017-12-27T19:46:01.688Z,2.03
2017-12-27T19:48:29.349Z,2.13
2017-12-27T19:50:56.944Z,2.00
2017-12-27T19:53:25.079Z,1.94
2017-12-27T19:55:52.643Z,1.86
2017-12-27T19:58:20.267Z,1.92
2017-12-27T20:00:48.081Z,2.07
2017-12-27T20:03:15.662Z,2.19
2017-12-27T20:05:43.216Z,2.09
2017-12-27T20:08:10.849Z,2.15
2017-12-27T20:10:38.416Z,2.10
2017-12-27T20:13:06.063Z,2.07
2017-12-27T20:15:52.853Z,2.04
2017-12-27T20:18:21.172Z,2.09
2017-12-27T20:20:48.748Z,2.13
2017-12-27T20:23:16.400Z,2.15
2017-12-27T20:25:43.984Z,2.24
2017-12-27T20:28:11.568Z,2.39
2017-12-27T20:30:39.108Z,2.52
2017-12-27T20:33:06.903Z,2.68
2017-12-27T20:35:34.522Z,2.76
2017-12-27T20:38:02.142Z,2.77
2017-12-27T20:40:30.480Z,2.88
2017-12-27T20:42:58.104Z,2.92
2017-12-27T20:45:25.652Z,3.10
2017-12-27T20:47:53.240Z,3.31
2017-12-27T20:50:20.789Z,3.32
2017-12-27T20:52:48.984Z,3.17
2017-12-27T20:55:16.597Z,3.20
2017-12-27T20:57:44.149Z,3.11
2017-12-27T21:00:11.697Z,3.08
2017-12-27T21:02:39.290Z,2.92
2017-12-27T21:05:06.859Z,2.82
2017-12-27T21:07:34.388Z,2.82
2017-12-27T21:10:01.961Z,2.72
2017-12-27T21:12:29.521Z,2.57
2017-12-27T21:14:57.114Z,2.60
2017-12-27T21:17:24.677Z,2.61
2017-12-27T21:19:52.228Z,2.43
2017-12-27T21:22:20.506Z,2.45
2017-12-27T21:24:48.060Z,2.56
2017-12-27T21:27:15.622Z,2.92
2017-12-27T21:29:43.188Z,2.89
2017-12-27T21:32:10.757Z,2.76
2017-12-27T21:34:38.343Z,2.80
2017-12-27T21:37:05.962Z,2.55
2017-12-27T21:39:33.533Z,2.51
2017-12-27T21:42:01.079Z,2.42
2017-12-27T21:44:28.663Z,2.33
2017-12-27T21:46:56.221Z,2.48
2017-12-27T21:49:29.414Z,2.49
2017-12-27T21:51:56.961Z,2.35
2017-12-27T21:54:24.962Z,2.27
2017-12-27T21:56:52.611Z,2.21
2017-12-27T21:59:25.812Z,2.12
2017-12-27T22:01:53.393Z,2.05
2017-12-27T22:04:20.934Z,2.11
2017-12-27T22:06:48.525Z,2.11
2017-12-27T22:09:16.110Z,1.96
2017-12-27T22:11:43.648Z,1.85
2017-12-27T22:14:11.198Z,1.94
2017-12-27T22:16:38.846Z,2.04
2017-12-27T22:19:06.441Z,2.04
2017-12-27T22:21:34.022Z,1.92
2017-12-27T22:24:01.611Z,1.79
2017-12-27T22:26:29.175Z,1.79
2017-12-27T22:28:56.727Z,1.85
2017-12-27T22:31:24.317Z,1.97
2017-12-27T22:33:51.875Z,2.02
2017-12-27T22:36:19.477Z,1.85
2017-12-27T22:38:47.081Z,1.79
2017-12-27T22:41:14.636Z,1.68
2017-12-27T22:43:42.213Z,1.84
2017-12-27T22:46:09.827Z,1.74
2017-12-27T22:48:37.406Z,1.75
2017-12-27T22:51:05.107Z,1.78
2017-12-27T22:53:32.697Z,1.79
2017-12-27T22:56:00.276Z,1.82
2017-12-27T22:58:27.868Z,1.83
2017-12-27T23:00:55.503Z,1.81
2017-12-27T23:03:23.109Z,1.70
2017-12-27T23:05:50.664Z,1.65
2017-12-27T23:08:18.387Z,1.65
2017-12-27T23:10:47.528Z,1.67
2017-12-27T23:13:15.308Z,1.72
2017-12-27T23:15:42.880Z,1.76
2017-12-27T23:18:10.459Z,1.82
2017-12-27T23:20:37.999Z,1.89
2017-12-27T23:23:07.247Z,1.92
2017-12-27T23:25:34.851Z,1.98
2017-12-27T23:28:02.416Z,2.29
2017-12-27T23:30:30.051Z,2.25
2017-12-27T23:32:57.832Z,2.21
2017-12-27T23:35:25.372Z,2.19
2017-12-27T23:37:52.923Z,2.31
2017-12-27T23:40:20.520Z,2.26
2017-12-27T23:42:48.132Z,2.37
2017-12-27T23:45:15.699Z,2.33
2017-12-27T23:47:43.277Z,2.42
2017-12-27T23:50:10.870Z,2.43
2017-12-27T23:52:38.445Z,2.45
2017-12-27T23:55:06.008Z,2.48
2017-12-27T23:57:33.727Z,2.43
